AAY3391 KBUR-KBLI
Flight info
| Callsign | AAY3391 |
|---|---|
| Flight time | 2h 28m |
| Altitude | 38000 |
| Route | OROSZ2 CSTRO SHIMR LKV J5 SEA KONAH MADEE6 |
| Aircraft | A319/M-SDE3FGHIRWY/LB1 |
Departure
| Time | 2026-05-07 17:32 |
|---|---|
| Airport | Hollywood Burbank/Bob Hope Airport (KBUR) |
Arrival
| Time | 2026-05-07 20:01 |
|---|---|
| Airport | Bellingham International Airport (KBLI) |
| Time | Latitude | Longitude | Altitude | Speed | Heading |
|---|---|---|---|---|---|
| 2026-05-07 16:59 | 34.19606 | -118.35485 | 690 ft | 0 kts | 125° |
| 2026-05-07 17:23 | 34.19612 | -118.35494 | 686 ft | 4 kts | 115° |
| 2026-05-07 17:23 | 34.19614 | -118.35521 | 686 ft | 4 kts | 55° |
| 2026-05-07 17:24 | 34.19597 | -118.35534 | 686 ft | 3 kts | 349° |
| 2026-05-07 17:24 | 34.19594 | -118.35534 | 687 ft | 0 kts | 347° |
| 2026-05-07 17:27 | 34.19597 | -118.35535 | 686 ft | 2 kts | 347° |
| 2026-05-07 17:27 | 34.19637 | -118.35546 | 686 ft | 9 kts | 347° |
| 2026-05-07 17:27 | 34.19702 | -118.35564 | 690 ft | 9 kts | 353° |
| 2026-05-07 17:27 | 34.19755 | -118.35528 | 692 ft | 9 kts | 16° |
| 2026-05-07 17:28 | 34.19818 | -118.35522 | 694 ft | 10 kts | 357° |
| 2026-05-07 17:28 | 34.19888 | -118.35540 | 697 ft | 12 kts | 346° |
| 2026-05-07 17:28 | 34.19989 | -118.35568 | 699 ft | 16 kts | 347° |
| 2026-05-07 17:28 | 34.20101 | -118.35599 | 700 ft | 16 kts | 347° |
| 2026-05-07 17:29 | 34.20205 | -118.35628 | 714 ft | 15 kts | 347° |
| 2026-05-07 17:29 | 34.20302 | -118.35655 | 719 ft | 14 kts | 347° |
| 2026-05-07 17:29 | 34.20403 | -118.35683 | 719 ft | 16 kts | 347° |
| 2026-05-07 17:29 | 34.20517 | -118.35714 | 725 ft | 18 kts | 347° |
| 2026-05-07 17:30 | 34.20648 | -118.35749 | 731 ft | 20 kts | 347° |
| 2026-05-07 17:30 | 34.20775 | -118.35784 | 742 ft | 16 kts | 347° |
| 2026-05-07 17:30 | 34.20871 | -118.35811 | 749 ft | 13 kts | 348° |
| 2026-05-07 17:30 | 34.20969 | -118.35836 | 753 ft | 15 kts | 348° |
| 2026-05-07 17:31 | 34.21067 | -118.35863 | 762 ft | 13 kts | 346° |
| 2026-05-07 17:31 | 34.21144 | -118.35895 | 769 ft | 10 kts | 333° |
| 2026-05-07 17:31 | 34.21191 | -118.35948 | 773 ft | 9 kts | 308° |
| 2026-05-07 17:31 | 34.21217 | -118.36021 | 774 ft | 11 kts | 256° |
| 2026-05-07 17:32 | 34.21133 | -118.36022 | 772 ft | 25 kts | 169° |
| 2026-05-07 17:32 | 34.20672 | -118.35890 | 736 ft | 111 kts | 168° |
| 2026-05-07 17:32 | 34.19716 | -118.35627 | 850 ft | 157 kts | 168° |
| 2026-05-07 17:32 | 34.18674 | -118.35401 | 1614 ft | 152 kts | 182° |
| 2026-05-07 17:33 | 34.17752 | -118.35970 | 2226 ft | 156 kts | 231° |
| 2026-05-07 17:33 | 34.17282 | -118.37185 | 2740 ft | 168 kts | 248° |
| 2026-05-07 17:33 | 34.16500 | -118.38358 | 3098 ft | 194 kts | 222° |
| 2026-05-07 17:33 | 34.15422 | -118.39502 | 3449 ft | 218 kts | 222° |
| 2026-05-07 17:34 | 34.14258 | -118.40842 | 3789 ft | 245 kts | 233° |
| 2026-05-07 17:34 | 34.13600 | -118.42809 | 4265 ft | 266 kts | 266° |
| 2026-05-07 17:34 | 34.13973 | -118.44995 | 5057 ft | 274 kts | 299° |
| 2026-05-07 17:34 | 34.15296 | -118.46657 | 5936 ft | 278 kts | 324° |
| 2026-05-07 17:35 | 34.16895 | -118.47990 | 6889 ft | 281 kts | 326° |
| 2026-05-07 17:35 | 34.18532 | -118.49299 | 7808 ft | 284 kts | 328° |
| 2026-05-07 17:35 | 34.20191 | -118.50614 | 8743 ft | 287 kts | 328° |
| 2026-05-07 17:35 | 34.21872 | -118.51953 | 9664 ft | 291 kts | 328° |
| 2026-05-07 17:36 | 34.23580 | -118.53321 | 10384 ft | 303 kts | 328° |
| 2026-05-07 17:36 | 34.25405 | -118.54788 | 10758 ft | 325 kts | 328° |
| 2026-05-07 17:36 | 34.27313 | -118.56329 | 11451 ft | 333 kts | 328° |
| 2026-05-07 17:36 | 34.29207 | -118.57868 | 12256 ft | 337 kts | 328° |
| 2026-05-07 17:37 | 34.31164 | -118.59463 | 13086 ft | 341 kts | 328° |
| 2026-05-07 17:37 | 34.33141 | -118.61075 | 13893 ft | 345 kts | 328° |
| 2026-05-07 17:37 | 34.35145 | -118.62707 | 14606 ft | 349 kts | 328° |
| 2026-05-07 17:37 | 34.37176 | -118.64324 | 15328 ft | 351 kts | 332° |
| 2026-05-07 17:38 | 34.39373 | -118.65618 | 16044 ft | 353 kts | 338° |
| 2026-05-07 17:38 | 34.41627 | -118.66829 | 16757 ft | 355 kts | 340° |
| 2026-05-07 17:38 | 34.43997 | -118.67675 | 17478 ft | 356 kts | 352° |
| 2026-05-07 17:38 | 34.46449 | -118.68155 | 18202 ft | 358 kts | 353° |
| 2026-05-07 17:39 | 34.48923 | -118.68630 | 18840 ft | 361 kts | 353° |
| 2026-05-07 17:39 | 34.51417 | -118.69112 | 19437 ft | 365 kts | 353° |
| 2026-05-07 17:39 | 34.53935 | -118.69601 | 20052 ft | 368 kts | 353° |
| 2026-05-07 17:39 | 34.56476 | -118.70095 | 20658 ft | 372 kts | 353° |
| 2026-05-07 17:40 | 34.59045 | -118.70596 | 21261 ft | 375 kts | 353° |
| 2026-05-07 17:40 | 34.61629 | -118.71103 | 21849 ft | 379 kts | 353° |
| 2026-05-07 17:40 | 34.64243 | -118.71616 | 22451 ft | 382 kts | 353° |
| 2026-05-07 17:40 | 34.66876 | -118.72131 | 23051 ft | 386 kts | 353° |
| 2026-05-07 17:41 | 34.69538 | -118.72657 | 23667 ft | 389 kts | 352° |
| 2026-05-07 17:41 | 34.72170 | -118.73515 | 24122 ft | 395 kts | 341° |
| 2026-05-07 17:41 | 34.74660 | -118.74971 | 24592 ft | 400 kts | 332° |
| 2026-05-07 17:41 | 34.77092 | -118.76652 | 25074 ft | 403 kts | 332° |
| 2026-05-07 17:42 | 34.79538 | -118.78334 | 25535 ft | 406 kts | 333° |
| 2026-05-07 17:42 | 34.82007 | -118.80027 | 25984 ft | 409 kts | 333° |
| 2026-05-07 17:42 | 34.84496 | -118.81732 | 26428 ft | 411 kts | 333° |
| 2026-05-07 17:42 | 34.87001 | -118.83447 | 26870 ft | 414 kts | 332° |
| 2026-05-07 17:43 | 34.89518 | -118.85175 | 27309 ft | 417 kts | 332° |
| 2026-05-07 17:43 | 34.92049 | -118.86919 | 27752 ft | 420 kts | 332° |
| 2026-05-07 17:43 | 34.94600 | -118.88682 | 28184 ft | 422 kts | 332° |
| 2026-05-07 17:43 | 34.97165 | -118.90455 | 28616 ft | 425 kts | 332° |
| 2026-05-07 17:44 | 34.99746 | -118.92238 | 29040 ft | 428 kts | 332° |
| 2026-05-07 17:44 | 35.02346 | -118.94032 | 29410 ft | 432 kts | 332° |
| 2026-05-07 17:44 | 35.04972 | -118.95843 | 29797 ft | 435 kts | 332° |
| 2026-05-07 17:44 | 35.07612 | -118.97665 | 30219 ft | 437 kts | 332° |
| 2026-05-07 17:45 | 35.10262 | -118.99496 | 30563 ft | 439 kts | 332° |
| 2026-05-07 17:45 | 35.12929 | -119.01343 | 30911 ft | 441 kts | 332° |
| 2026-05-07 17:45 | 35.15601 | -119.03196 | 31253 ft | 443 kts | 332° |
| 2026-05-07 17:45 | 35.18283 | -119.05056 | 31596 ft | 444 kts | 332° |
| 2026-05-07 17:46 | 35.20980 | -119.06926 | 31881 ft | 447 kts | 332° |
| 2026-05-07 17:46 | 35.23689 | -119.08807 | 32269 ft | 448 kts | 332° |
| 2026-05-07 17:46 | 35.26390 | -119.10688 | 32724 ft | 446 kts | 332° |
| 2026-05-07 17:46 | 35.29086 | -119.12567 | 33186 ft | 445 kts | 332° |
| 2026-05-07 17:47 | 35.31774 | -119.14437 | 33650 ft | 444 kts | 332° |
| 2026-05-07 17:47 | 35.34451 | -119.16300 | 34116 ft | 442 kts | 332° |
| 2026-05-07 17:47 | 35.37126 | -119.18163 | 34538 ft | 440 kts | 332° |
| 2026-05-07 17:47 | 35.39784 | -119.20016 | 34957 ft | 439 kts | 332° |
| 2026-05-07 17:48 | 35.42428 | -119.21859 | 35367 ft | 436 kts | 332° |
| 2026-05-07 17:48 | 35.45156 | -119.23454 | 35790 ft | 432 kts | 341° |
| 2026-05-07 17:48 | 35.48022 | -119.24500 | 36210 ft | 428 kts | 347° |
| 2026-05-07 17:48 | 35.50901 | -119.25358 | 36640 ft | 425 kts | 347° |
| 2026-05-07 17:49 | 35.53728 | -119.26201 | 37082 ft | 421 kts | 347° |
| 2026-05-07 17:49 | 35.56567 | -119.27049 | 37497 ft | 418 kts | 347° |
| 2026-05-07 17:49 | 35.59386 | -119.27887 | 37865 ft | 416 kts | 347° |
| 2026-05-07 17:49 | 35.62200 | -119.28722 | 38095 ft | 416 kts | 347° |
| 2026-05-07 17:50 | 35.67800 | -119.30391 | 38136 ft | 413 kts | 346° |
| 2026-05-07 17:50 | 35.73376 | -119.32064 | 38140 ft | 412 kts | 346° |
| 2026-05-07 17:51 | 35.78950 | -119.33744 | 38138 ft | 413 kts | 346° |
| 2026-05-07 17:51 | 35.84541 | -119.35427 | 38133 ft | 414 kts | 347° |
| 2026-05-07 17:52 | 35.90145 | -119.37115 | 38136 ft | 414 kts | 346° |
| 2026-05-07 17:52 | 35.95709 | -119.38791 | 38139 ft | 415 kts | 347° |
| 2026-05-07 17:53 | 36.01323 | -119.40478 | 38133 ft | 415 kts | 347° |
| 2026-05-07 17:53 | 36.06946 | -119.42174 | 38121 ft | 417 kts | 347° |
| 2026-05-07 17:54 | 36.12582 | -119.43888 | 38129 ft | 418 kts | 347° |
| 2026-05-07 17:54 | 36.18229 | -119.45612 | 38135 ft | 418 kts | 347° |
| 2026-05-07 17:55 | 36.23886 | -119.47328 | 38135 ft | 419 kts | 347° |
| 2026-05-07 17:55 | 36.29561 | -119.49050 | 38138 ft | 420 kts | 347° |
| 2026-05-07 17:56 | 36.35238 | -119.50781 | 38137 ft | 420 kts | 347° |
| 2026-05-07 17:56 | 36.40919 | -119.52520 | 38130 ft | 421 kts | 347° |
| 2026-05-07 17:57 | 36.45653 | -119.53968 | 38122 ft | 422 kts | 346° |
| 2026-05-07 17:57 | 36.52318 | -119.56005 | 38136 ft | 422 kts | 346° |
| 2026-05-07 17:58 | 36.58009 | -119.57756 | 38136 ft | 421 kts | 346° |
| 2026-05-07 17:58 | 36.63705 | -119.59506 | 38130 ft | 422 kts | 347° |
| 2026-05-07 17:59 | 36.69410 | -119.61252 | 38135 ft | 423 kts | 347° |
| 2026-05-07 17:59 | 36.75122 | -119.63011 | 38139 ft | 423 kts | 346° |
| 2026-05-07 18:00 | 36.80836 | -119.64778 | 38140 ft | 423 kts | 346° |
| 2026-05-07 18:00 | 36.86517 | -119.66543 | 38142 ft | 424 kts | 346° |
| 2026-05-07 18:01 | 36.92244 | -119.68304 | 38142 ft | 424 kts | 346° |
| 2026-05-07 18:01 | 36.97975 | -119.70081 | 38136 ft | 424 kts | 346° |
| 2026-05-07 18:02 | 37.06580 | -119.72768 | 38121 ft | 426 kts | 346° |
| 2026-05-07 18:03 | 37.12339 | -119.74556 | 38119 ft | 426 kts | 347° |
| 2026-05-07 18:03 | 37.18098 | -119.76343 | 38116 ft | 426 kts | 347° |
| 2026-05-07 18:04 | 37.23858 | -119.78145 | 38126 ft | 427 kts | 346° |
| 2026-05-07 18:04 | 37.29626 | -119.79949 | 38129 ft | 427 kts | 346° |
| 2026-05-07 18:05 | 37.35393 | -119.81751 | 38127 ft | 427 kts | 347° |
| 2026-05-07 18:05 | 37.41162 | -119.83554 | 38130 ft | 427 kts | 346° |
| 2026-05-07 18:06 | 37.46930 | -119.85358 | 38133 ft | 427 kts | 346° |
| 2026-05-07 18:06 | 37.52693 | -119.87179 | 38141 ft | 427 kts | 346° |
| 2026-05-07 18:07 | 37.58416 | -119.88985 | 38144 ft | 427 kts | 346° |
| 2026-05-07 18:07 | 37.64179 | -119.90805 | 38139 ft | 427 kts | 346° |
| 2026-05-07 18:08 | 37.69942 | -119.92625 | 38145 ft | 427 kts | 346° |
| 2026-05-07 18:08 | 37.75710 | -119.94451 | 38140 ft | 427 kts | 346° |
| 2026-05-07 18:09 | 37.81474 | -119.96286 | 38143 ft | 427 kts | 346° |
| 2026-05-07 18:09 | 37.87241 | -119.98120 | 38149 ft | 427 kts | 347° |
| 2026-05-07 18:10 | 37.93012 | -119.99950 | 38147 ft | 428 kts | 346° |
| 2026-05-07 18:10 | 37.97803 | -120.01478 | 38164 ft | 427 kts | 346° |
| 2026-05-07 18:11 | 38.03570 | -120.03316 | 38163 ft | 427 kts | 347° |
| 2026-05-07 18:11 | 38.09334 | -120.05166 | 38164 ft | 427 kts | 346° |
| 2026-05-07 18:12 | 38.15103 | -120.07017 | 38172 ft | 427 kts | 346° |
| 2026-05-07 18:12 | 38.20863 | -120.08862 | 38181 ft | 427 kts | 346° |
| 2026-05-07 18:13 | 38.26714 | -120.09959 | 38166 ft | 426 kts | 356° |
| 2026-05-07 18:13 | 38.32622 | -120.10488 | 38174 ft | 425 kts | 356° |
| 2026-05-07 18:14 | 38.38527 | -120.11026 | 38180 ft | 425 kts | 356° |
| 2026-05-07 18:14 | 38.44427 | -120.11561 | 38166 ft | 425 kts | 356° |
| 2026-05-07 18:15 | 38.50340 | -120.12090 | 38168 ft | 426 kts | 356° |
| 2026-05-07 18:15 | 38.56255 | -120.12627 | 38186 ft | 427 kts | 356° |
| 2026-05-07 18:16 | 38.62176 | -120.13180 | 38179 ft | 427 kts | 356° |
| 2026-05-07 18:16 | 38.68099 | -120.13729 | 38183 ft | 427 kts | 356° |
| 2026-05-07 18:17 | 38.74016 | -120.14278 | 38182 ft | 426 kts | 356° |
| 2026-05-07 18:17 | 38.79900 | -120.14818 | 38178 ft | 427 kts | 356° |
| 2026-05-07 18:18 | 38.85822 | -120.15361 | 38182 ft | 427 kts | 356° |
| 2026-05-07 18:18 | 38.91750 | -120.15901 | 38181 ft | 427 kts | 356° |
| 2026-05-07 18:19 | 38.97676 | -120.16451 | 38189 ft | 427 kts | 356° |
| 2026-05-07 18:19 | 39.03596 | -120.17003 | 38209 ft | 426 kts | 356° |
| 2026-05-07 18:20 | 39.09514 | -120.17551 | 38232 ft | 426 kts | 356° |
| 2026-05-07 18:20 | 39.15427 | -120.18102 | 38268 ft | 426 kts | 356° |
| 2026-05-07 18:21 | 39.21338 | -120.18654 | 38298 ft | 425 kts | 356° |
| 2026-05-07 18:21 | 39.27238 | -120.19202 | 38308 ft | 425 kts | 356° |
| 2026-05-07 18:22 | 39.33100 | -120.19747 | 38314 ft | 425 kts | 356° |
| 2026-05-07 18:22 | 39.38990 | -120.20296 | 38115 ft | 424 kts | 355° |
| 2026-05-07 18:23 | 39.44868 | -120.20848 | 38100 ft | 423 kts | 356° |
| 2026-05-07 18:23 | 39.50748 | -120.21397 | 38102 ft | 423 kts | 355° |
| 2026-05-07 18:24 | 39.56621 | -120.21943 | 38095 ft | 423 kts | 355° |
| 2026-05-07 18:24 | 39.62491 | -120.22488 | 38096 ft | 423 kts | 355° |
| 2026-05-07 18:25 | 39.68354 | -120.23044 | 38094 ft | 422 kts | 355° |
| 2026-05-07 18:25 | 39.74216 | -120.23611 | 38099 ft | 422 kts | 355° |
| 2026-05-07 18:26 | 39.80079 | -120.24166 | 38095 ft | 422 kts | 355° |
| 2026-05-07 18:26 | 39.85933 | -120.24720 | 38080 ft | 422 kts | 355° |
| 2026-05-07 18:27 | 39.91789 | -120.25273 | 38083 ft | 422 kts | 355° |
| 2026-05-07 18:27 | 39.97639 | -120.25830 | 38089 ft | 421 kts | 355° |
| 2026-05-07 18:28 | 40.03443 | -120.26387 | 38081 ft | 420 kts | 355° |
| 2026-05-07 18:28 | 40.09279 | -120.26941 | 38080 ft | 420 kts | 355° |
| 2026-05-07 18:29 | 40.15121 | -120.27496 | 38084 ft | 421 kts | 355° |
| 2026-05-07 18:29 | 40.20966 | -120.28055 | 38100 ft | 421 kts | 355° |
| 2026-05-07 18:30 | 40.26815 | -120.28611 | 38124 ft | 422 kts | 355° |
| 2026-05-07 18:30 | 40.32675 | -120.29177 | 38133 ft | 422 kts | 355° |
| 2026-05-07 18:31 | 40.38538 | -120.29744 | 38143 ft | 423 kts | 355° |
| 2026-05-07 18:31 | 40.44406 | -120.30310 | 38152 ft | 423 kts | 355° |
| 2026-05-07 18:32 | 40.50275 | -120.30877 | 38144 ft | 422 kts | 355° |
| 2026-05-07 18:32 | 40.56131 | -120.31441 | 38133 ft | 422 kts | 355° |
| 2026-05-07 18:33 | 40.61981 | -120.32000 | 38112 ft | 421 kts | 355° |
| 2026-05-07 18:33 | 40.67826 | -120.32569 | 38090 ft | 421 kts | 354° |
| 2026-05-07 18:34 | 40.73666 | -120.33145 | 38092 ft | 421 kts | 354° |
| 2026-05-07 18:34 | 40.79464 | -120.33714 | 38098 ft | 420 kts | 355° |
| 2026-05-07 18:35 | 40.85291 | -120.34282 | 38097 ft | 420 kts | 354° |
| 2026-05-07 18:35 | 40.91115 | -120.34845 | 38102 ft | 419 kts | 354° |
| 2026-05-07 18:36 | 40.96933 | -120.35409 | 38100 ft | 419 kts | 354° |
| 2026-05-07 18:36 | 41.02754 | -120.35977 | 38095 ft | 419 kts | 354° |
| 2026-05-07 18:37 | 41.08575 | -120.36564 | 38108 ft | 419 kts | 354° |
| 2026-05-07 18:37 | 41.14389 | -120.37140 | 38109 ft | 418 kts | 354° |
| 2026-05-07 18:38 | 41.20194 | -120.37707 | 38128 ft | 418 kts | 354° |
| 2026-05-07 18:38 | 41.26001 | -120.38276 | 38147 ft | 418 kts | 354° |
| 2026-05-07 18:39 | 41.31804 | -120.38848 | 38159 ft | 418 kts | 354° |
| 2026-05-07 18:39 | 41.37609 | -120.39427 | 38175 ft | 418 kts | 354° |
| 2026-05-07 18:40 | 41.43406 | -120.40017 | 38197 ft | 418 kts | 354° |
| 2026-05-07 18:40 | 41.49205 | -120.40591 | 38115 ft | 417 kts | 354° |
| 2026-05-07 18:41 | 41.54995 | -120.41162 | 38113 ft | 417 kts | 354° |
| 2026-05-07 18:41 | 41.60781 | -120.41727 | 38114 ft | 416 kts | 354° |
| 2026-05-07 18:42 | 41.66521 | -120.42304 | 38117 ft | 416 kts | 354° |
| 2026-05-07 18:42 | 41.72298 | -120.42886 | 38122 ft | 416 kts | 354° |
| 2026-05-07 18:43 | 41.78077 | -120.43471 | 38126 ft | 416 kts | 354° |
| 2026-05-07 18:43 | 41.83855 | -120.44056 | 38152 ft | 416 kts | 353° |
| 2026-05-07 18:44 | 41.89629 | -120.44636 | 38168 ft | 416 kts | 353° |
| 2026-05-07 18:44 | 41.95393 | -120.45216 | 38194 ft | 415 kts | 353° |
| 2026-05-07 18:45 | 42.01151 | -120.45802 | 38207 ft | 415 kts | 353° |
| 2026-05-07 18:45 | 42.06900 | -120.46383 | 38220 ft | 414 kts | 353° |
| 2026-05-07 18:46 | 42.12641 | -120.46961 | 38217 ft | 414 kts | 353° |
| 2026-05-07 18:46 | 42.18392 | -120.47551 | 38233 ft | 414 kts | 353° |
| 2026-05-07 18:47 | 42.24118 | -120.48134 | 38138 ft | 412 kts | 353° |
| 2026-05-07 18:47 | 42.29835 | -120.48722 | 38138 ft | 412 kts | 353° |
| 2026-05-07 18:48 | 42.35506 | -120.49296 | 38125 ft | 411 kts | 353° |
| 2026-05-07 18:48 | 42.41215 | -120.49875 | 38114 ft | 411 kts | 353° |
| 2026-05-07 18:49 | 42.46922 | -120.50462 | 38105 ft | 411 kts | 353° |
| 2026-05-07 18:49 | 42.52518 | -120.51788 | 38102 ft | 408 kts | 344° |
| 2026-05-07 18:50 | 42.58027 | -120.53637 | 38118 ft | 408 kts | 343° |
| 2026-05-07 18:50 | 42.63533 | -120.55474 | 38114 ft | 407 kts | 343° |
| 2026-05-07 18:51 | 42.69040 | -120.57318 | 38113 ft | 407 kts | 343° |
| 2026-05-07 18:51 | 42.74543 | -120.59170 | 38105 ft | 407 kts | 343° |
| 2026-05-07 18:52 | 42.80040 | -120.61026 | 38098 ft | 407 kts | 343° |
| 2026-05-07 18:52 | 42.85535 | -120.62877 | 38097 ft | 407 kts | 343° |
| 2026-05-07 18:53 | 42.91033 | -120.64743 | 38084 ft | 407 kts | 343° |
| 2026-05-07 18:53 | 42.96541 | -120.66615 | 38098 ft | 408 kts | 343° |
| 2026-05-07 18:54 | 43.02054 | -120.68483 | 38086 ft | 408 kts | 343° |
| 2026-05-07 18:54 | 43.07568 | -120.70355 | 38102 ft | 408 kts | 343° |
| 2026-05-07 18:55 | 43.13085 | -120.72233 | 38096 ft | 408 kts | 343° |
| 2026-05-07 18:55 | 43.18549 | -120.74109 | 38091 ft | 407 kts | 343° |
| 2026-05-07 18:56 | 43.24043 | -120.75990 | 38089 ft | 407 kts | 343° |
| 2026-05-07 18:56 | 43.29544 | -120.77865 | 38075 ft | 407 kts | 343° |
| 2026-05-07 18:57 | 43.35037 | -120.79756 | 38075 ft | 407 kts | 343° |
| 2026-05-07 18:57 | 43.40530 | -120.81649 | 38072 ft | 407 kts | 343° |
| 2026-05-07 18:58 | 43.46025 | -120.83541 | 38072 ft | 407 kts | 343° |
| 2026-05-07 18:58 | 43.50587 | -120.85111 | 38071 ft | 407 kts | 343° |
| 2026-05-07 18:59 | 43.56081 | -120.87010 | 38094 ft | 407 kts | 342° |
| 2026-05-07 18:59 | 43.61565 | -120.88914 | 38095 ft | 406 kts | 342° |
| 2026-05-07 19:00 | 43.67038 | -120.90815 | 38095 ft | 405 kts | 342° |
| 2026-05-07 19:00 | 43.72504 | -120.92722 | 38092 ft | 405 kts | 342° |
| 2026-05-07 19:01 | 43.77969 | -120.94625 | 38089 ft | 405 kts | 342° |
| 2026-05-07 19:01 | 43.83431 | -120.96528 | 38093 ft | 405 kts | 342° |
| 2026-05-07 19:02 | 43.88620 | -120.98349 | 38096 ft | 405 kts | 342° |
| 2026-05-07 19:02 | 43.94084 | -121.00269 | 38102 ft | 405 kts | 342° |
| 2026-05-07 19:03 | 43.99553 | -121.02178 | 38107 ft | 405 kts | 342° |
| 2026-05-07 19:03 | 44.05020 | -121.04090 | 38140 ft | 405 kts | 341° |
| 2026-05-07 19:04 | 44.10476 | -121.06019 | 38135 ft | 404 kts | 341° |
| 2026-05-07 19:04 | 44.15882 | -121.07934 | 38128 ft | 403 kts | 341° |
| 2026-05-07 19:05 | 44.21317 | -121.09856 | 38136 ft | 403 kts | 341° |
| 2026-05-07 19:05 | 44.26750 | -121.11777 | 38127 ft | 403 kts | 341° |
| 2026-05-07 19:06 | 44.32179 | -121.13710 | 38071 ft | 402 kts | 341° |
| 2026-05-07 19:06 | 44.40322 | -121.16610 | 38069 ft | 402 kts | 341° |
| 2026-05-07 19:07 | 44.45750 | -121.18549 | 38068 ft | 402 kts | 341° |
| 2026-05-07 19:07 | 44.51174 | -121.20490 | 38067 ft | 402 kts | 341° |
| 2026-05-07 19:08 | 44.56568 | -121.22418 | 38067 ft | 403 kts | 341° |
| 2026-05-07 19:08 | 44.61997 | -121.24362 | 38069 ft | 403 kts | 341° |
| 2026-05-07 19:09 | 44.67465 | -121.26330 | 38064 ft | 403 kts | 341° |
| 2026-05-07 19:09 | 44.72863 | -121.28283 | 38069 ft | 403 kts | 341° |
| 2026-05-07 19:10 | 44.78332 | -121.30266 | 38071 ft | 404 kts | 341° |
| 2026-05-07 19:10 | 44.83774 | -121.32229 | 38080 ft | 404 kts | 341° |
| 2026-05-07 19:11 | 44.89217 | -121.34196 | 38087 ft | 404 kts | 341° |
| 2026-05-07 19:11 | 44.94615 | -121.36163 | 38092 ft | 403 kts | 341° |
| 2026-05-07 19:12 | 45.00046 | -121.38138 | 38086 ft | 403 kts | 341° |
| 2026-05-07 19:12 | 45.05481 | -121.40116 | 38089 ft | 403 kts | 341° |
| 2026-05-07 19:13 | 45.10918 | -121.42103 | 38112 ft | 403 kts | 341° |
| 2026-05-07 19:13 | 45.16349 | -121.44089 | 38110 ft | 403 kts | 341° |
| 2026-05-07 19:14 | 45.21772 | -121.46079 | 38112 ft | 402 kts | 340° |
| 2026-05-07 19:14 | 45.27195 | -121.48069 | 38103 ft | 403 kts | 341° |
| 2026-05-07 19:15 | 45.32620 | -121.50056 | 38106 ft | 403 kts | 341° |
| 2026-05-07 19:15 | 45.38039 | -121.52053 | 38109 ft | 402 kts | 340° |
| 2026-05-07 19:16 | 45.43460 | -121.54059 | 38115 ft | 402 kts | 340° |
| 2026-05-07 19:16 | 45.48843 | -121.56063 | 38101 ft | 402 kts | 340° |
| 2026-05-07 19:17 | 45.54254 | -121.58076 | 38103 ft | 402 kts | 340° |
| 2026-05-07 19:17 | 45.59670 | -121.60089 | 38140 ft | 402 kts | 340° |
| 2026-05-07 19:18 | 45.65086 | -121.62101 | 38138 ft | 402 kts | 340° |
| 2026-05-07 19:18 | 45.70486 | -121.64117 | 38133 ft | 401 kts | 340° |
| 2026-05-07 19:19 | 45.75877 | -121.66134 | 38136 ft | 400 kts | 340° |
| 2026-05-07 19:19 | 45.81263 | -121.68159 | 38134 ft | 400 kts | 340° |
| 2026-05-07 19:20 | 45.86651 | -121.70187 | 38142 ft | 400 kts | 340° |
| 2026-05-07 19:20 | 45.92039 | -121.72204 | 38129 ft | 400 kts | 340° |
| 2026-05-07 19:21 | 45.97420 | -121.74225 | 38125 ft | 399 kts | 340° |
| 2026-05-07 19:21 | 46.02800 | -121.76256 | 38130 ft | 400 kts | 340° |
| 2026-05-07 19:22 | 46.08172 | -121.78295 | 38145 ft | 400 kts | 340° |
| 2026-05-07 19:22 | 46.13552 | -121.80343 | 38145 ft | 399 kts | 340° |
| 2026-05-07 19:23 | 46.18922 | -121.82376 | 38156 ft | 398 kts | 340° |
| 2026-05-07 19:23 | 46.24238 | -121.84397 | 38145 ft | 397 kts | 340° |
| 2026-05-07 19:24 | 46.29558 | -121.86440 | 38151 ft | 395 kts | 340° |
| 2026-05-07 19:24 | 46.34878 | -121.88482 | 38143 ft | 395 kts | 339° |
| 2026-05-07 19:25 | 46.40198 | -121.90512 | 38137 ft | 396 kts | 340° |
| 2026-05-07 19:25 | 46.45518 | -121.92541 | 38145 ft | 395 kts | 340° |
| 2026-05-07 19:26 | 46.50832 | -121.94592 | 38157 ft | 395 kts | 339° |
| 2026-05-07 19:26 | 46.56148 | -121.96643 | 38140 ft | 395 kts | 340° |
| 2026-05-07 19:27 | 46.61466 | -121.98699 | 38139 ft | 395 kts | 340° |
| 2026-05-07 19:27 | 46.66788 | -122.00757 | 38169 ft | 396 kts | 339° |
| 2026-05-07 19:28 | 46.72093 | -122.02820 | 38177 ft | 394 kts | 339° |
| 2026-05-07 19:28 | 46.77382 | -122.04879 | 38187 ft | 393 kts | 339° |
| 2026-05-07 19:29 | 46.82657 | -122.06928 | 38176 ft | 392 kts | 339° |
| 2026-05-07 19:29 | 46.87888 | -122.08966 | 38192 ft | 391 kts | 339° |
| 2026-05-07 19:30 | 46.93153 | -122.11027 | 38185 ft | 392 kts | 339° |
| 2026-05-07 19:30 | 46.98429 | -122.13100 | 38189 ft | 393 kts | 339° |
| 2026-05-07 19:31 | 47.03714 | -122.15180 | 38193 ft | 393 kts | 339° |
| 2026-05-07 19:31 | 47.09004 | -122.17265 | 38193 ft | 394 kts | 339° |
| 2026-05-07 19:32 | 47.14300 | -122.19352 | 38182 ft | 394 kts | 339° |
| 2026-05-07 19:32 | 47.19597 | -122.21445 | 38184 ft | 394 kts | 339° |
| 2026-05-07 19:33 | 47.24900 | -122.23538 | 38212 ft | 394 kts | 339° |
| 2026-05-07 19:33 | 47.27551 | -122.24590 | 37994 ft | 395 kts | 339° |
| 2026-05-07 19:33 | 47.30227 | -122.25656 | 36968 ft | 403 kts | 339° |
| 2026-05-07 19:34 | 47.32956 | -122.26748 | 36146 ft | 407 kts | 339° |
| 2026-05-07 19:34 | 47.35691 | -122.27839 | 35491 ft | 407 kts | 339° |
| 2026-05-07 19:34 | 47.38424 | -122.28925 | 34674 ft | 409 kts | 340° |
| 2026-05-07 19:34 | 47.41172 | -122.30023 | 33708 ft | 417 kts | 340° |
| 2026-05-07 19:35 | 47.44041 | -122.30803 | 32947 ft | 424 kts | 351° |
| 2026-05-07 19:35 | 47.47002 | -122.30763 | 32251 ft | 426 kts | 357° |
| 2026-05-07 19:35 | 47.49995 | -122.30567 | 31579 ft | 423 kts | 357° |
| 2026-05-07 19:35 | 47.52884 | -122.30370 | 30962 ft | 420 kts | 357° |
| 2026-05-07 19:36 | 47.55798 | -122.30174 | 30353 ft | 417 kts | 357° |
| 2026-05-07 19:36 | 47.58695 | -122.29983 | 29657 ft | 415 kts | 358° |
| 2026-05-07 19:36 | 47.61567 | -122.29795 | 28986 ft | 412 kts | 358° |
| 2026-05-07 19:36 | 47.64417 | -122.29609 | 28341 ft | 409 kts | 358° |
| 2026-05-07 19:37 | 47.67253 | -122.29423 | 27717 ft | 406 kts | 358° |
| 2026-05-07 19:37 | 47.70061 | -122.29241 | 27131 ft | 402 kts | 358° |
| 2026-05-07 19:37 | 47.72844 | -122.29066 | 26557 ft | 399 kts | 359° |
| 2026-05-07 19:37 | 47.75610 | -122.28892 | 26000 ft | 396 kts | 359° |
| 2026-05-07 19:38 | 47.78350 | -122.28719 | 25451 ft | 394 kts | 359° |
| 2026-05-07 19:38 | 47.81079 | -122.28545 | 24939 ft | 391 kts | 359° |
| 2026-05-07 19:38 | 47.83791 | -122.28373 | 24375 ft | 387 kts | 359° |
| 2026-05-07 19:38 | 47.86475 | -122.28201 | 23644 ft | 385 kts | 360° |
| 2026-05-07 19:39 | 47.89141 | -122.28028 | 22846 ft | 382 kts | 0° |
| 2026-05-07 19:39 | 47.91781 | -122.27912 | 22095 ft | 377 kts | 355° |
| 2026-05-07 19:39 | 47.94336 | -122.28472 | 21641 ft | 364 kts | 346° |
| 2026-05-07 19:39 | 47.95961 | -122.28961 | 21354 ft | 356 kts | 347° |
| 2026-05-07 19:40 | 47.99181 | -122.29903 | 20542 ft | 349 kts | 347° |
| 2026-05-07 19:40 | 48.01558 | -122.30581 | 19898 ft | 346 kts | 347° |
| 2026-05-07 19:40 | 48.03915 | -122.31253 | 19262 ft | 344 kts | 347° |
| 2026-05-07 19:40 | 48.06258 | -122.31924 | 18624 ft | 342 kts | 348° |
| 2026-05-07 19:41 | 48.08587 | -122.32594 | 17943 ft | 340 kts | 348° |
| 2026-05-07 19:41 | 48.10898 | -122.33259 | 17350 ft | 335 kts | 348° |
| 2026-05-07 19:41 | 48.13171 | -122.33913 | 16781 ft | 330 kts | 348° |
| 2026-05-07 19:41 | 48.15414 | -122.34564 | 16202 ft | 327 kts | 348° |
| 2026-05-07 19:42 | 48.17638 | -122.35209 | 15630 ft | 323 kts | 348° |
| 2026-05-07 19:42 | 48.19835 | -122.35847 | 15069 ft | 320 kts | 348° |
| 2026-05-07 19:42 | 48.22012 | -122.36483 | 14513 ft | 317 kts | 348° |
| 2026-05-07 19:42 | 48.24138 | -122.37104 | 13957 ft | 314 kts | 348° |
| 2026-05-07 19:43 | 48.26277 | -122.37729 | 13350 ft | 312 kts | 349° |
| 2026-05-07 19:43 | 48.28399 | -122.38351 | 12719 ft | 310 kts | 349° |
| 2026-05-07 19:43 | 48.30507 | -122.38970 | 12115 ft | 308 kts | 349° |
| 2026-05-07 19:43 | 48.32598 | -122.39585 | 11634 ft | 303 kts | 349° |
| 2026-05-07 19:44 | 48.34665 | -122.40191 | 11322 ft | 302 kts | 349° |
| 2026-05-07 19:44 | 48.36722 | -122.40796 | 11017 ft | 301 kts | 350° |
| 2026-05-07 19:44 | 48.38778 | -122.41398 | 10729 ft | 301 kts | 350° |
| 2026-05-07 19:44 | 48.40823 | -122.41993 | 10427 ft | 299 kts | 350° |
| 2026-05-07 19:45 | 48.42855 | -122.42588 | 10128 ft | 295 kts | 350° |
| 2026-05-07 19:45 | 48.44858 | -122.43174 | 9822 ft | 292 kts | 350° |
| 2026-05-07 19:45 | 48.46843 | -122.43754 | 9530 ft | 290 kts | 350° |
| 2026-05-07 19:45 | 48.48822 | -122.44337 | 9242 ft | 289 kts | 350° |
| 2026-05-07 19:46 | 48.50790 | -122.44919 | 8949 ft | 288 kts | 350° |
| 2026-05-07 19:46 | 48.52755 | -122.45498 | 8671 ft | 287 kts | 350° |
| 2026-05-07 19:46 | 48.54707 | -122.46079 | 8395 ft | 286 kts | 350° |
| 2026-05-07 19:46 | 48.56656 | -122.46656 | 8112 ft | 285 kts | 350° |
| 2026-05-07 19:47 | 48.58598 | -122.47230 | 7830 ft | 284 kts | 350° |
| 2026-05-07 19:47 | 48.60531 | -122.47801 | 7546 ft | 283 kts | 350° |
| 2026-05-07 19:47 | 48.61809 | -122.48177 | 7361 ft | 282 kts | 351° |
| 2026-05-07 19:47 | 48.64320 | -122.49281 | 6988 ft | 282 kts | 336° |
| 2026-05-07 19:48 | 48.65434 | -122.50286 | 6843 ft | 283 kts | 325° |
| 2026-05-07 19:48 | 48.66993 | -122.52103 | 6634 ft | 282 kts | 323° |
| 2026-05-07 19:48 | 48.68546 | -122.53907 | 6420 ft | 281 kts | 324° |
| 2026-05-07 19:48 | 48.70099 | -122.55705 | 6206 ft | 280 kts | 324° |
| 2026-05-07 19:49 | 48.71642 | -122.57491 | 6052 ft | 278 kts | 324° |
| 2026-05-07 19:49 | 48.73178 | -122.59270 | 6002 ft | 278 kts | 324° |
| 2026-05-07 19:49 | 48.74718 | -122.61056 | 6017 ft | 279 kts | 323° |
| 2026-05-07 19:49 | 48.76254 | -122.62843 | 5781 ft | 278 kts | 323° |
| 2026-05-07 19:50 | 48.77797 | -122.64610 | 5278 ft | 277 kts | 327° |
| 2026-05-07 19:50 | 48.79507 | -122.65868 | 4895 ft | 271 kts | 343° |
| 2026-05-07 19:50 | 48.81334 | -122.66348 | 4717 ft | 265 kts | 358° |
| 2026-05-07 19:50 | 48.83183 | -122.66369 | 4439 ft | 264 kts | 0° |
| 2026-05-07 19:51 | 48.85019 | -122.66377 | 4245 ft | 264 kts | 360° |
| 2026-05-07 19:51 | 48.86853 | -122.66390 | 4063 ft | 263 kts | 359° |
| 2026-05-07 19:51 | 48.88682 | -122.66407 | 3903 ft | 263 kts | 359° |
| 2026-05-07 19:51 | 48.90506 | -122.66431 | 3732 ft | 262 kts | 359° |
| 2026-05-07 19:52 | 48.92325 | -122.66459 | 3607 ft | 258 kts | 359° |
| 2026-05-07 19:52 | 48.94057 | -122.66487 | 3545 ft | 241 kts | 359° |
| 2026-05-07 19:52 | 48.95676 | -122.66514 | 3489 ft | 225 kts | 359° |
| 2026-05-07 19:52 | 48.97196 | -122.66539 | 3437 ft | 211 kts | 359° |
| 2026-05-07 19:53 | 48.98632 | -122.66562 | 3386 ft | 203 kts | 359° |
| 2026-05-07 19:53 | 49.00041 | -122.66586 | 3339 ft | 202 kts | 359° |
| 2026-05-07 19:53 | 49.01447 | -122.66600 | 3289 ft | 202 kts | 1° |
| 2026-05-07 19:53 | 49.02750 | -122.65970 | 3230 ft | 203 kts | 37° |
| 2026-05-07 19:54 | 49.03551 | -122.64240 | 3185 ft | 203 kts | 75° |
| 2026-05-07 19:54 | 49.03652 | -122.62110 | 3100 ft | 203 kts | 93° |
| 2026-05-07 19:54 | 49.03469 | -122.59984 | 3001 ft | 202 kts | 109° |
| 2026-05-07 19:54 | 49.02959 | -122.57999 | 2999 ft | 202 kts | 115° |
| 2026-05-07 19:55 | 49.02258 | -122.56235 | 2996 ft | 191 kts | 131° |
| 2026-05-07 19:55 | 49.01332 | -122.54836 | 2996 ft | 186 kts | 147° |
| 2026-05-07 19:55 | 49.00176 | -122.54012 | 2999 ft | 183 kts | 167° |
| 2026-05-07 19:55 | 48.98916 | -122.53833 | 2999 ft | 182 kts | 182° |
| 2026-05-07 19:56 | 48.97687 | -122.53829 | 3039 ft | 169 kts | 182° |
| 2026-05-07 19:56 | 48.96551 | -122.53822 | 2998 ft | 156 kts | 182° |
| 2026-05-07 19:56 | 48.95503 | -122.53817 | 2993 ft | 146 kts | 182° |
| 2026-05-07 19:56 | 48.94496 | -122.53813 | 2946 ft | 143 kts | 181° |
| 2026-05-07 19:57 | 48.93506 | -122.53809 | 2822 ft | 142 kts | 182° |
| 2026-05-07 19:57 | 48.92526 | -122.53806 | 2659 ft | 140 kts | 182° |
| 2026-05-07 19:57 | 48.91578 | -122.53801 | 2480 ft | 132 kts | 183° |
| 2026-05-07 19:57 | 48.90671 | -122.53797 | 2305 ft | 129 kts | 184° |
| 2026-05-07 19:58 | 48.89776 | -122.53793 | 2134 ft | 128 kts | 184° |
| 2026-05-07 19:58 | 48.88891 | -122.53789 | 1931 ft | 127 kts | 183° |
| 2026-05-07 19:58 | 48.88002 | -122.53786 | 1756 ft | 128 kts | 182° |
| 2026-05-07 19:58 | 48.87118 | -122.53783 | 1560 ft | 127 kts | 183° |
| 2026-05-07 19:59 | 48.86239 | -122.53779 | 1384 ft | 127 kts | 183° |
| 2026-05-07 19:59 | 48.85360 | -122.53776 | 1211 ft | 126 kts | 183° |
| 2026-05-07 19:59 | 48.84489 | -122.53772 | 1050 ft | 126 kts | 183° |
| 2026-05-07 19:59 | 48.83607 | -122.53769 | 881 ft | 127 kts | 183° |
| 2026-05-07 20:00 | 48.82731 | -122.53765 | 717 ft | 125 kts | 182° |
| 2026-05-07 20:00 | 48.81861 | -122.53761 | 554 ft | 125 kts | 181° |
| 2026-05-07 20:00 | 48.80993 | -122.53758 | 379 ft | 124 kts | 182° |
| 2026-05-07 20:00 | 48.80128 | -122.53752 | 171 ft | 124 kts | 183° |
| 2026-05-07 20:01 | 48.79368 | -122.53753 | 150 ft | 90 kts | 179° |
| 2026-05-07 20:01 | 48.78916 | -122.53751 | 154 ft | 40 kts | 180° |
| 2026-05-07 20:01 | 48.78677 | -122.53754 | 153 ft | 35 kts | 180° |
| 2026-05-07 20:01 | 48.78450 | -122.53752 | 151 ft | 26 kts | 179° |
| 2026-05-07 20:02 | 48.78363 | -122.53701 | 151 ft | 15 kts | 95° |
| 2026-05-07 20:02 | 48.78408 | -122.53565 | 152 ft | 18 kts | 5° |
| 2026-05-07 20:02 | 48.78550 | -122.53583 | 152 ft | 23 kts | 1° |
| 2026-05-07 20:02 | 48.78724 | -122.53581 | 152 ft | 27 kts | 0° |
| 2026-05-07 20:03 | 48.78930 | -122.53584 | 152 ft | 32 kts | 0° |
| 2026-05-07 20:03 | 48.79164 | -122.53582 | 152 ft | 36 kts | 0° |
| 2026-05-07 20:03 | 48.79373 | -122.53581 | 151 ft | 14 kts | 15° |
| 2026-05-07 20:03 | 48.79459 | -122.53468 | 152 ft | 16 kts | 41° |
| 2026-05-07 20:04 | 48.79510 | -122.53398 | 152 ft | 6 kts | 50° |
| 2026-05-07 20:04 | 48.79523 | -122.53374 | 152 ft | 1 kts | 51° |
| 2026-05-07 20:04 | 48.79523 | -122.53373 | 152 ft | 0 kts | 51° |